Time;durP1;ratioP1;P1;durP2;ratioP2;P2;SDS_P1;SDS_P2;PMS_P1;PMS_P2;Temp;Humidity;BMP_temperature;BMP_pressure;BME280_temperature;BME280_humidity;BME280_pressure;Samples;Min_cycle;Max_cycle;Signal;HPM_P1;HPM_P2
2022/08/30 00:03:09;;;;;;;14.20;8.40;;;;;;;14.04;81.34;98280.61;105723;1283;22612;-86
2022/08/30 00:05:38;;;;;;;12.90;7.60;;;;;;;13.99;81.96;98283.02;105600;1282;27145;-86
2022/08/30 00:08:06;;;;;;;12.70;8.00;;;;;;;14.16;82.02;98278.33;105571;1282;22544;-86
2022/08/30 00:10:35;;;;;;;16.60;7.70;;;;;;;14.23;81.68;98282.00;105674;1282;22707;-87
2022/08/30 00:13:05;;;;;;;11.80;7.00;;;;;;;14.21;81.38;98281.16;105648;1282;25459;-85
2022/08/30 00:15:33;;;;;;;9.70;6.60;;;;;;;14.19;81.62;98278.95;105655;1282;24428;-86
2022/08/30 00:18:02;;;;;;;9.40;6.90;;;;;;;14.10;81.79;98282.86;105648;1283;22691;-86
2022/08/30 00:20:32;;;;;;;14.30;7.10;;;;;;;13.99;81.96;98280.55;105583;1282;22629;-87
2022/08/30 00:23:00;;;;;;;12.70;7.00;;;;;;;13.92;82.03;98285.27;105612;1282;22894;-87
2022/08/30 00:25:29;;;;;;;11.50;7.20;;;;;;;13.80;82.28;98285.23;105675;1282;24299;-86
2022/08/30 00:27:57;;;;;;;10.90;7.30;;;;;;;13.74;82.74;98287.50;105692;1282;24417;-86
2022/08/30 00:30:25;;;;;;;12.30;7.10;;;;;;;13.63;82.70;98284.40;105741;1282;22546;-88
2022/08/30 00:32:53;;;;;;;14.00;6.80;;;;;;;13.55;83.04;98282.97;105628;1282;22759;-88
2022/08/30 00:35:21;;;;;;;21.20;8.20;;;;;;;13.51;83.03;98281.21;105705;1282;24301;-87
2022/08/30 00:37:50;;;;;;;13.60;7.40;;;;;;;13.43;83.35;98282.48;105938;1282;22711;-87
2022/08/30 00:40:20;;;;;;;10.50;6.50;;;;;;;13.31;83.56;98280.81;105828;1282;22759;-86
2022/08/30 00:42:59;;;;;;;11.90;7.00;;;;;;;13.25;83.55;98280.98;105602;1282;25457;-86
2022/08/30 00:45:34;;;;;;;14.70;7.80;;;;;;;13.19;83.69;98278.73;105636;1282;25937;-86
2022/08/30 00:48:04;;;;;;;11.40;8.20;;;;;;;13.12;83.71;98281.77;105963;1282;22744;-86
2022/08/30 00:50:47;;;;;;;11.00;9.20;;;;;;;13.15;83.57;98283.64;105548;1282;24425;-87
2022/08/30 00:53:20;;;;;;;17.50;8.70;;;;;;;13.22;83.53;98283.54;105561;1282;22839;-85
2022/08/30 00:55:49;;;;;;;17.10;8.10;;;;;;;13.26;83.44;98284.77;105686;1282;25457;-86
2022/08/30 00:58:21;;;;;;;13.10;8.90;;;;;;;13.22;83.49;98287.34;105444;1282;24493;-86
2022/08/30 01:00:52;;;;;;;12.60;8.20;;;;;;;13.20;83.95;98285.09;105843;1282;22663;-87
2022/08/30 01:03:21;;;;;;;12.80;7.10;;;;;;;13.27;84.21;98279.66;105818;1282;24326;-87
2022/08/30 01:05:50;;;;;;;12.80;6.60;;;;;;;13.28;84.35;98274.92;105519;1282;24085;-87
2022/08/30 01:08:21;;;;;;;16.10;7.20;;;;;;;13.33;84.41;98276.20;105634;1282;22757;-87
2022/08/30 01:10:52;;;;;;;15.10;7.40;;;;;;;13.30;84.13;98273.40;105444;1282;22686;-87
2022/08/30 01:13:22;;;;;;;12.80;7.80;;;;;;;13.17;84.11;98267.77;105670;1282;22698;-88
2022/08/30 01:15:50;;;;;;;10.20;7.10;;;;;;;13.04;84.08;98268.25;105495;1282;25378;-85
2022/08/30 01:18:22;;;;;;;13.10;7.70;;;;;;;12.94;84.19;98268.58;105606;1282;25474;-85
2022/08/30 01:21:19;;;;;;;12.00;7.00;;;;;;;12.95;84.39;98267.74;105968;1281;25475;-86
2022/08/30 01:23:52;;;;;;;11.50;7.50;;;;;;;13.00;84.30;98269.64;105860;1282;22562;-87
2022/08/30 01:26:20;;;;;;;15.80;6.90;;;;;;;13.01;84.53;98271.08;105849;1282;25252;-87
2022/08/30 01:28:54;;;;;;;11.10;7.80;;;;;;;13.12;84.46;98273.63;105606;1282;22711;-87
2022/08/30 01:31:22;;;;;;;19.10;7.10;;;;;;;13.16;84.17;98268.71;105715;1283;24441;-87
2022/08/30 01:33:50;;;;;;;11.10;6.80;;;;;;;13.23;84.40;98270.80;105806;1282;24339;-87
2022/08/30 01:36:19;;;;;;;13.10;7.10;;;;;;;13.29;84.34;98266.23;105855;1282;22673;-86
2022/08/30 01:38:51;;;;;;;11.10;8.00;;;;;;;13.25;83.95;98264.77;105579;1283;24584;-86
2022/08/30 01:41:25;;;;;;;14.40;8.60;;;;;;;13.17;83.48;98269.14;105960;1282;22531;-87
2022/08/30 01:43:57;;;;;;;11.70;7.70;;;;;;;13.08;83.94;98274.16;105799;1282;22544;-88
2022/08/30 01:46:29;;;;;;;12.40;7.90;;;;;;;13.21;84.63;98276.09;105704;1282;24267;-86
2022/08/30 01:48:57;;;;;;;17.00;7.80;;;;;;;13.31;84.33;98276.86;105916;1282;22559;-86
2022/08/30 01:51:27;;;;;;;11.40;7.40;;;;;;;13.43;83.69;98277.70;105729;1282;22544;-86
2022/08/30 01:53:56;;;;;;;13.40;7.60;;;;;;;13.41;83.30;98275.65;105723;1283;22541;-87
2022/08/30 01:56:26;;;;;;;10.70;7.50;;;;;;;13.44;83.27;98276.56;105612;1282;23255;-86
2022/08/30 01:58:55;;;;;;;10.40;7.10;;;;;;;13.43;83.42;98276.90;105667;1282;22637;-85
2022/08/30 02:01:32;;;;;;;11.10;6.60;;;;;;;13.53;84.04;98272.90;105809;1282;23530;-85
2022/08/30 02:04:01;;;;;;;10.70;6.90;;;;;;;13.55;83.11;98277.63;105764;1282;25351;-85
2022/08/30 02:06:29;;;;;;;10.30;6.80;;;;;;;13.46;83.08;98277.86;105753;1282;24455;-86
2022/08/30 02:08:57;;;;;;;13.40;7.20;;;;;;;13.29;83.22;98275.87;105759;1282;24436;-88
2022/08/30 02:11:25;;;;;;;9.00;7.40;;;;;;;13.10;83.48;98272.33;105352;1282;25786;-86
2022/08/30 02:13:53;;;;;;;11.70;6.90;;;;;;;12.95;83.60;98273.55;105783;1282;22641;-87
2022/08/30 02:16:23;;;;;;;11.00;7.30;;;;;;;12.95;83.99;98272.92;105646;1282;24415;-88
2022/08/30 02:18:53;;;;;;;10.40;7.10;;;;;;;13.20;84.32;98275.46;105302;1282;25371;-87
2022/08/30 02:21:21;;;;;;;10.60;6.90;;;;;;;13.38;84.29;98277.98;105752;1282;24321;-86
2022/08/30 02:23:50;;;;;;;10.20;7.40;;;;;;;13.55;83.67;98271.02;105832;1282;23780;-87
2022/08/30 02:26:19;;;;;;;10.30;6.70;;;;;;;13.55;83.20;98268.59;105800;1282;25279;-86
2022/08/30 02:28:48;;;;;;;11.00;8.00;;;;;;;13.48;83.37;98271.36;105549;1282;22580;-84
2022/08/30 02:31:19;;;;;;;16.10;7.10;;;;;;;13.35;83.28;98275.13;105662;1282;23941;-87
2022/08/30 02:33:53;;;;;;;9.40;6.40;;;;;;;13.23;83.60;98273.55;105763;1282;22564;-88
2022/08/30 02:36:21;;;;;;;11.60;7.30;;;;;;;13.08;83.45;98270.21;105490;1283;25415;-86
2022/08/30 02:38:50;;;;;;;9.80;6.80;;;;;;;12.91;83.62;98263.23;105640;1282;23984;-85
2022/08/30 02:41:19;;;;;;;10.60;7.20;;;;;;;12.74;83.68;98260.05;105630;1282;22714;-85
2022/08/30 02:43:48;;;;;;;13.00;7.30;;;;;;;12.62;83.77;98255.23;105689;1282;25552;-85
2022/08/30 02:46:16;;;;;;;11.70;7.30;;;;;;;12.58;83.88;98259.41;105969;1282;25509;-86
2022/08/30 02:48:45;;;;;;;12.90;7.50;;;;;;;12.43;84.11;98259.73;105617;1282;24214;-88
2022/08/30 02:51:13;;;;;;;11.20;7.10;;;;;;;12.17;84.59;98253.98;105725;1280;24428;-87
2022/08/30 02:53:42;;;;;;;11.90;7.50;;;;;;;12.02;84.74;98255.13;105613;1282;25221;-86
2022/08/30 02:56:13;;;;;;;10.50;8.20;;;;;;;12.04;85.12;98256.17;105409;1282;23158;-85
2022/08/30 02:58:43;;;;;;;13.40;7.80;;;;;;;12.28;85.74;98254.84;105549;1283;22556;-87
2022/08/30 03:01:14;;;;;;;10.30;6.80;;;;;;;12.52;85.17;98258.73;105599;1283;22724;-84
2022/08/30 03:03:44;;;;;;;13.60;9.30;;;;;;;12.72;84.92;98263.44;105594;1281;22782;-85
2022/08/30 03:06:13;;;;;;;13.80;8.60;;;;;;;12.67;84.77;98262.61;105633;1282;22700;-85
2022/08/30 03:08:41;;;;;;;13.70;9.20;;;;;;;12.64;85.29;98258.96;105545;1282;22679;-85
2022/08/30 03:11:12;;;;;;;12.30;8.90;;;;;;;12.61;85.43;98260.38;105440;1283;22994;-85
2022/08/30 03:13:40;;;;;;;12.70;9.30;;;;;;;12.55;85.37;98263.59;105649;1282;24145;-85
2022/08/30 03:16:08;;;;;;;12.90;10.20;;;;;;;12.51;85.58;98264.77;105609;1282;24127;-85
2022/08/30 03:18:36;;;;;;;11.90;9.00;;;;;;;12.52;85.43;98263.20;105679;1282;22708;-85
2022/08/30 03:21:13;;;;;;;13.90;9.70;;;;;;;12.52;85.41;98267.59;105689;1282;22556;-85
2022/08/30 03:23:41;;;;;;;18.60;10.60;;;;;;;12.52;85.45;98266.13;105693;1282;22558;-86
2022/08/30 03:26:11;;;;;;;14.90;10.50;;;;;;;12.46;85.61;98266.70;105688;1282;25410;-86
2022/08/30 03:28:41;;;;;;;17.30;9.90;;;;;;;12.45;85.61;98265.31;105625;1282;22540;-86
2022/08/30 03:31:10;;;;;;;15.00;9.70;;;;;;;12.47;85.49;98267.09;105643;1282;22590;-86
2022/08/30 03:33:39;;;;;;;15.80;9.20;;;;;;;12.54;85.88;98268.30;105810;1282;25366;-86
2022/08/30 03:36:08;;;;;;;15.60;9.30;;;;;;;12.77;86.09;98262.37;105639;1282;25305;-85
2022/08/30 03:38:37;;;;;;;14.80;10.80;;;;;;;12.97;85.79;98262.83;105640;1282;25468;-85
2022/08/30 03:41:05;;;;;;;16.30;10.60;;;;;;;12.93;85.10;98267.19;105648;1282;22544;-85
2022/08/30 03:43:36;;;;;;;19.30;17.30;;;;;;;12.99;85.92;98272.04;105389;1282;22619;-85
2022/08/30 03:46:04;;;;;;;16.90;13.30;;;;;;;13.23;85.85;98274.80;105629;1282;22698;-85
2022/08/30 03:48:32;;;;;;;15.70;11.40;;;;;;;13.31;84.94;98279.23;105448;1283;22708;-86
2022/08/30 03:51:00;;;;;;;15.20;10.90;;;;;;;13.30;84.26;98282.14;105603;1282;24471;-85
2022/08/30 03:53:33;;;;;;;14.50;9.60;;;;;;;13.31;84.98;98280.64;105676;1282;22874;-86
2022/08/30 03:56:02;;;;;;;14.00;9.30;;;;;;;13.38;84.53;98280.54;105670;1282;24099;-87
2022/08/30 03:58:31;;;;;;;15.90;8.90;;;;;;;13.24;84.15;98288.44;105696;1282;22586;-88
2022/08/30 04:00:59;;;;;;;12.00;9.00;;;;;;;13.11;84.18;98293.65;105724;1282;25542;-86
2022/08/30 04:03:28;;;;;;;14.10;10.90;;;;;;;13.30;85.92;98296.13;105649;1282;22615;-86
2022/08/30 04:05:56;;;;;;;14.70;10.80;;;;;;;13.54;84.54;98294.88;105608;1282;22701;-86
2022/08/30 04:08:24;;;;;;;11.60;9.90;;;;;;;13.49;84.47;98292.45;105681;1282;25773;-87
2022/08/30 04:10:54;;;;;;;14.40;9.30;;;;;;;13.77;85.65;98290.29;105648;1282;22827;-88
2022/08/30 04:13:23;;;;;;;12.90;9.10;;;;;;;13.98;84.39;98292.20;105676;1282;24218;-88
2022/08/30 04:15:51;;;;;;;14.90;9.90;;;;;;;14.05;83.72;98289.36;105596;1282;22632;-86
2022/08/30 04:18:20;;;;;;;13.80;10.40;;;;;;;14.04;83.51;98292.70;105619;1282;22724;-85
2022/08/30 04:20:50;;;;;;;12.60;9.60;;;;;;;13.98;83.22;98290.52;105671;1282;24203;-86
2022/08/30 04:23:18;;;;;;;13.40;9.90;;;;;;;13.88;82.97;98293.05;105561;1282;25615;-87
2022/08/30 04:25:47;;;;;;;11.10;9.10;;;;;;;13.75;82.82;98293.65;107311;1282;25377;-86
2022/08/30 04:28:15;;;;;;;15.30;10.20;;;;;;;13.58;82.85;98293.19;105848;1282;25600;-86
2022/08/30 04:30:44;;;;;;;15.80;12.00;;;;;;;13.53;83.33;98296.04;105574;1281;22559;-86
2022/08/30 04:33:14;;;;;;;17.40;11.50;;;;;;;13.49;82.69;98296.95;105697;1282;22561;-84
2022/08/30 04:35:44;;;;;;;13.40;10.60;;;;;;;13.37;83.08;98298.20;105631;1282;22598;-86
2022/08/30 04:38:13;;;;;;;16.30;11.80;;;;;;;13.27;83.01;98300.20;105365;1283;22573;-85
2022/08/30 04:40:42;;;;;;;21.50;12.40;;;;;;;13.14;83.08;98300.32;105716;1282;22705;-86
2022/08/30 04:43:11;;;;;;;17.80;13.80;;;;;;;13.00;83.05;98300.80;105589;1282;24096;-84
2022/08/30 04:45:41;;;;;;;16.90;12.90;;;;;;;12.91;83.65;98309.05;105566;1282;23941;-84
2022/08/30 04:48:09;;;;;;;21.20;12.10;;;;;;;12.99;84.09;98309.31;105584;1282;22709;-84
2022/08/30 04:50:37;;;;;;;20.30;13.00;;;;;;;13.12;83.59;98311.34;105446;1283;22542;-85
2022/08/30 04:53:12;;;;;;;16.50;13.50;;;;;;;13.04;84.04;98311.59;105591;1282;23296;-85
2022/08/30 04:55:42;;;;;;;19.00;13.80;;;;;;;12.88;83.98;98317.77;105712;1282;25373;-87
2022/08/30 04:58:11;;;;;;;18.20;14.20;;;;;;;12.85;84.43;98315.04;105477;1282;22581;-87
2022/08/30 05:00:42;;;;;;;18.80;14.60;;;;;;;12.90;84.22;98316.39;105767;1282;23563;-84
2022/08/30 05:03:11;;;;;;;20.10;14.20;;;;;;;12.95;84.56;98315.95;105568;1282;24918;-84
2022/08/30 05:05:39;;;;;;;18.90;13.30;;;;;;;13.07;84.65;98319.80;105631;1282;25558;-85
2022/08/30 05:08:10;;;;;;;16.20;13.10;;;;;;;13.12;84.52;98326.48;105623;1282;22496;-86
2022/08/30 05:10:43;;;;;;;19.10;13.90;;;;;;;13.16;84.76;98335.06;105670;1282;22558;-85
2022/08/30 05:13:11;;;;;;;18.00;14.20;;;;;;;13.27;85.54;98334.75;105596;1282;25368;-85
2022/08/30 05:15:40;;;;;;;19.90;13.70;;;;;;;13.43;85.40;98335.79;105532;1282;22564;-85
2022/08/30 05:18:09;;;;;;;25.90;15.70;;;;;;;13.51;84.83;98336.64;105411;1283;22544;-85
2022/08/30 05:20:42;;;;;;;26.60;17.30;;;;;;;13.54;84.48;98337.09;105456;1282;25317;-83
2022/08/30 05:23:10;;;;;;;31.30;19.20;;;;;;;13.56;84.81;98342.10;106824;1283;22616;-84
2022/08/30 05:25:41;;;;;;;28.10;19.20;;;;;;;13.60;84.93;98342.20;106756;1281;24734;-85
2022/08/30 05:28:09;;;;;;;27.50;19.50;;;;;;;13.75;85.89;98343.61;105658;1282;22712;-84
2022/08/30 05:30:37;;;;;;;27.80;19.30;;;;;;;14.08;86.70;98344.55;105578;1282;25434;-84
2022/08/30 05:33:05;;;;;;;22.90;20.40;;;;;;;14.43;85.94;98343.08;105643;1282;22725;-84
2022/08/30 05:35:33;;;;;;;26.20;22.70;;;;;;;14.49;85.09;98344.70;105649;1282;25536;-83
2022/08/30 05:38:01;;;;;;;28.30;21.60;;;;;;;14.47;85.21;98346.00;105580;1282;24225;-83
2022/08/30 05:40:29;;;;;;;30.50;24.10;;;;;;;14.48;85.31;98344.19;105685;1282;22791;-84
2022/08/30 05:42:58;;;;;;;33.30;26.60;;;;;;;14.37;85.22;98342.96;105582;1282;22549;-83
2022/08/30 05:45:26;;;;;;;25.70;21.30;;;;;;;14.32;85.63;98345.66;105362;1282;22551;-85
2022/08/30 05:47:55;;;;;;;34.90;25.80;;;;;;;14.38;86.11;98343.84;105537;1282;22544;-85
2022/08/30 05:50:23;;;;;;;30.70;27.30;;;;;;;14.41;85.96;98344.08;105440;1282;25543;-83
2022/08/30 05:52:51;;;;;;;38.40;30.70;;;;;;;14.54;87.09;98347.63;105916;1282;24091;-84
2022/08/30 05:55:20;;;;;;;36.40;32.90;;;;;;;14.66;86.21;98345.63;105074;1284;22701;-83
2022/08/30 05:57:48;;;;;;;40.60;36.80;;;;;;;14.70;86.31;98347.11;105572;1282;24301;-84
2022/08/30 06:00:17;;;;;;;39.60;35.50;;;;;;;14.78;87.26;98346.88;105565;1282;22614;-84
2022/08/30 06:02:45;;;;;;;39.00;35.20;;;;;;;14.98;86.71;98341.94;105516;1282;24294;-83
2022/08/30 06:05:13;;;;;;;25.10;22.50;;;;;;;14.98;86.10;98337.44;105649;1282;25240;-83
2022/08/30 06:07:42;;;;;;;35.00;31.50;;;;;;;15.18;87.05;98340.20;105560;1282;22547;-84
2022/08/30 06:10:13;;;;;;;32.60;29.20;;;;;;;15.20;86.01;98338.20;105382;1282;25524;-84
2022/08/30 06:12:44;;;;;;;32.40;29.20;;;;;;;15.27;86.41;98334.60;105506;1282;24214;-85
2022/08/30 06:15:11;;;;;;;34.50;31.10;;;;;;;15.26;86.24;98339.48;105513;1282;25355;-84
2022/08/30 06:17:39;;;;;;;32.60;29.30;;;;;;;15.29;86.40;98341.27;105516;1282;22541;-83
2022/08/30 06:20:08;;;;;;;28.10;25.20;;;;;;;15.31;86.02;98337.30;105538;1282;22547;-83
2022/08/30 06:22:37;;;;;;;30.40;26.70;;;;;;;15.40;86.57;98335.02;105589;1282;23399;-84
2022/08/30 06:25:06;;;;;;;32.30;25.30;;;;;;;15.48;86.78;98331.48;105442;1282;22538;-86
2022/08/30 06:27:34;;;;;;;31.80;26.50;;;;;;;15.64;86.68;98332.48;105476;1282;25269;-85
2022/08/30 06:30:07;;;;;;;32.60;23.50;;;;;;;15.64;86.12;98335.77;105529;1282;22569;-85
2022/08/30 06:32:35;;;;;;;30.10;22.00;;;;;;;15.59;85.94;98342.15;105652;1282;25317;-83
2022/08/30 06:35:05;;;;;;;34.90;23.80;;;;;;;15.60;86.16;98342.43;105247;1282;23889;-85
2022/08/30 06:37:34;;;;;;;25.30;20.80;;;;;;;15.69;86.66;98343.02;105671;1282;22528;-84
2022/08/30 06:40:03;;;;;;;27.50;21.20;;;;;;;15.91;86.61;98341.45;105320;1282;24224;-84
2022/08/30 06:42:32;;;;;;;30.10;22.20;;;;;;;16.01;86.01;98343.04;105340;1282;24226;-84
2022/08/30 06:45:01;;;;;;;25.50;17.60;;;;;;;16.05;86.00;98344.02;105599;1282;24254;-83
2022/08/30 06:47:38;;;;;;;23.50;18.30;;;;;;;16.25;85.56;98343.60;105311;1282;22888;-84
2022/08/30 06:50:09;;;;;;;26.30;20.30;;;;;;;16.40;85.53;98349.19;105547;1282;22710;-84
2022/08/30 06:52:41;;;;;;;23.40;21.00;;;;;;;16.43;85.21;98354.20;105520;1282;22599;-83
2022/08/30 06:55:11;;;;;;;25.60;22.60;;;;;;;16.43;84.87;98352.02;105623;1282;23938;-83
2022/08/30 06:57:39;;;;;;;23.80;20.50;;;;;;;16.41;84.87;98353.34;105420;1282;25430;-83
2022/08/30 07:00:11;;;;;;;20.70;18.40;;;;;;;16.46;85.23;98358.05;105527;1282;25319;-84
2022/08/30 07:02:39;;;;;;;21.10;16.90;;;;;;;16.60;84.77;98357.98;105359;1283;22542;-84
2022/08/30 07:05:10;;;;;;;20.10;15.30;;;;;;;16.67;84.70;98357.84;105643;1282;25686;-86
2022/08/30 07:07:44;;;;;;;19.20;15.70;;;;;;;16.78;84.67;98359.29;106141;1282;22573;-85
2022/08/30 07:10:14;;;;;;;18.80;13.30;;;;;;;16.84;84.39;98365.75;105589;1282;24296;-85
2022/08/30 07:12:42;;;;;;;20.00;15.50;;;;;;;16.87;83.86;98364.15;105857;1282;22618;-86
2022/08/30 07:15:10;;;;;;;19.60;13.90;;;;;;;16.91;83.94;98364.08;105922;1282;25250;-86
2022/08/30 07:20:25;;;;;;;20.70;17.80;;;;;;;17.02;84.10;98362.17;105688;1282;22759;-85
2022/08/30 07:22:53;;;;;;;22.30;17.80;;;;;;;17.11;83.64;98360.66;105870;1282;24101;-85
2022/08/30 07:25:21;;;;;;;22.30;16.30;;;;;;;17.23;84.00;98360.58;105813;1282;25340;-88
2022/08/30 07:27:50;;;;;;;21.70;15.10;;;;;;;17.32;83.75;98363.95;105873;1282;23231;-85
2022/08/30 07:30:19;;;;;;;21.20;12.80;;;;;;;17.40;83.77;98358.56;105833;1282;24728;-86
2022/08/30 07:32:47;;;;;;;23.70;15.70;;;;;;;17.68;85.05;98361.40;105703;1282;24187;-84
2022/08/30 07:35:15;;;;;;;17.10;12.70;;;;;;;17.90;82.53;98360.75;105664;1282;24296;-86
2022/08/30 07:37:43;;;;;;;14.70;11.80;;;;;;;17.89;82.20;98358.02;105614;1282;25357;-85
2022/08/30 07:40:11;;;;;;;15.60;11.00;;;;;;;17.88;81.89;98358.30;105557;1282;24432;-83
2022/08/30 07:42:39;;;;;;;8.90;7.80;;;;;;;17.97;81.62;98362.05;105458;1283;22915;-82
2022/08/30 07:45:09;;;;;;;11.80;8.10;;;;;;;18.07;81.70;98360.45;105565;1283;22545;-87
2022/08/30 07:47:37;;;;;;;13.90;8.30;;;;;;;18.13;82.18;98358.02;105815;1282;24431;-86
2022/08/30 07:50:06;;;;;;;13.00;10.30;;;;;;;18.19;81.36;98358.45;105639;1282;22568;-86
2022/08/30 07:52:34;;;;;;;17.00;11.80;;;;;;;18.09;80.80;98361.15;105417;1285;25330;-86
2022/08/30 07:55:08;;;;;;;43.00;20.30;;;;;;;18.16;80.80;98363.25;105678;1283;22560;-85
2022/08/30 07:57:36;;;;;;;40.00;19.80;;;;;;;18.22;80.19;98360.11;105723;1283;25611;-86
2022/08/30 08:00:05;;;;;;;10.70;7.10;;;;;;;18.22;80.03;98364.30;105719;1282;23712;-86
2022/08/30 08:02:39;;;;;;;10.50;7.80;;;;;;;18.15;79.76;98363.38;106109;1282;25309;-84
2022/08/30 08:05:09;;;;;;;11.30;7.10;;;;;;;18.11;80.08;98363.10;105501;1282;22548;-85
2022/08/30 08:07:42;;;;;;;11.40;7.10;;;;;;;18.25;80.07;98363.88;105811;1282;22593;-85
2022/08/30 08:10:10;;;;;;;7.30;6.20;;;;;;;18.39;79.80;98367.09;105757;1282;26199;-85
2022/08/30 08:12:39;;;;;;;8.20;5.70;;;;;;;18.48;78.77;98363.16;106108;1282;22570;-85
2022/08/30 08:15:07;;;;;;;8.50;7.00;;;;;;;18.61;78.70;98366.55;105791;1282;26724;-85
2022/08/30 08:17:36;;;;;;;11.70;6.90;;;;;;;18.71;79.50;98365.72;105816;1283;23256;-88
2022/08/30 08:20:04;;;;;;;8.40;6.60;;;;;;;18.89;78.76;98369.10;105737;1282;25489;-85
2022/08/30 08:22:32;;;;;;;8.70;6.30;;;;;;;18.84;76.63;98372.80;105983;1282;25001;-86
2022/08/30 08:25:06;;;;;;;6.60;5.70;;;;;;;18.71;77.72;98377.11;106060;1282;23237;-86
2022/08/30 08:27:34;;;;;;;7.00;5.50;;;;;;;18.72;77.35;98377.27;105897;1282;26630;-85
2022/08/30 08:30:03;;;;;;;8.60;5.80;;;;;;;18.71;76.25;98379.34;105679;1282;26604;-85
2022/08/30 08:32:31;;;;;;;8.50;7.10;;;;;;;18.67;76.73;98381.18;105640;1282;22725;-82
2022/08/30 08:34:59;;;;;;;8.10;5.70;;;;;;;18.67;76.59;98382.50;105406;1283;22778;-83
2022/08/30 08:37:27;;;;;;;7.90;5.60;;;;;;;18.76;76.61;98379.39;105427;1282;24372;-82
2022/08/30 08:39:56;;;;;;;6.10;4.20;;;;;;;18.96;75.60;98383.86;105858;1282;25471;-84
2022/08/30 08:42:48;;;;;;;9.10;5.40;;;;;;;19.11;74.56;98384.64;105887;1282;24244;-83
2022/08/30 08:45:31;;;;;;;6.60;4.90;;;;;;;19.31;74.14;98381.64;105680;1282;22702;-83
2022/08/30 08:48:15;;;;;;;9.20;6.30;;;;;;;19.38;73.39;98389.65;105653;1282;22567;-83
2022/08/30 08:53:33;;;;;;;8.30;5.70;;;;;;;19.34;73.76;98389.71;105536;1283;26736;-82
2022/08/30 08:53:35;;;;;;;8.80;5.30;;;;;;;19.30;73.00;98388.80;105989;1281;25486;-85
2022/08/30 08:56:16;;;;;;;8.50;5.50;;;;;;;19.27;73.20;98392.55;105588;1282;22576;-81
2022/08/30 08:58:47;;;;;;;8.70;5.30;;;;;;;19.23;73.28;98391.94;105753;1283;24368;-82
2022/08/30 09:01:20;;;;;;;8.00;5.40;;;;;;;19.25;73.13;98392.77;105663;1282;25473;-83
2022/08/30 09:03:50;;;;;;;7.80;5.50;;;;;;;19.25;73.37;98394.19;105566;1283;23538;-84
2022/08/30 09:06:23;;;;;;;7.40;5.70;;;;;;;19.28;72.73;98394.30;105613;1282;25635;-83
2022/08/30 09:08:51;;;;;;;7.30;6.00;;;;;;;19.28;73.19;98391.86;105561;1282;25357;-83
2022/08/30 09:11:27;;;;;;;9.00;7.00;;;;;;;19.33;72.52;98391.77;105477;1283;25428;-82
2022/08/30 09:13:55;;;;;;;10.70;7.20;;;;;;;19.31;72.25;98388.89;105964;1283;22620;-83
2022/08/30 09:16:50;;;;;;;11.60;7.00;;;;;;;19.34;72.64;98385.24;105891;1282;23935;-83
2022/08/30 09:19:55;;;;;;;9.40;6.90;;;;;;;19.37;72.50;98385.27;106058;1282;22820;-84
2022/08/30 09:22:32;;;;;;;14.00;7.60;;;;;;;19.40;72.60;98388.30;105904;1282;23521;-83
2022/08/30 09:25:00;;;;;;;8.90;7.30;;;;;;;19.45;72.44;98392.78;105728;1282;22551;-82
2022/08/30 09:27:49;;;;;;;12.00;8.30;;;;;;;19.50;71.80;98386.77;105830;1282;22648;-82
2022/08/30 09:30:27;;;;;;;12.20;7.20;;;;;;;19.62;72.02;98387.80;105668;1282;24436;-81
2022/08/30 09:32:56;;;;;;;9.60;7.60;;;;;;;19.80;71.23;98383.39;105734;1282;24258;-83
2022/08/30 09:35:37;;;;;;;11.50;7.30;;;;;;;19.88;71.32;98384.42;106129;1282;22637;-83
2022/08/30 09:38:05;;;;;;;11.80;6.90;;;;;;;19.99;71.57;98379.18;105686;1282;22716;-82
2022/08/30 09:40:40;;;;;;;10.00;6.10;;;;;;;20.23;69.52;98375.58;105679;1282;24267;-82
2022/08/30 09:43:23;;;;;;;13.70;7.40;;;;;;;20.50;69.58;98371.20;105692;1284;22642;-82
2022/08/30 09:46:01;;;;;;;12.60;8.70;;;;;;;20.81;69.27;98369.88;106022;1282;25353;-83
2022/08/30 09:48:39;;;;;;;12.80;7.30;;;;;;;20.91;68.91;98367.21;105514;1283;22718;-83
2022/08/30 09:51:20;;;;;;;9.60;7.20;;;;;;;20.82;68.67;98364.35;106031;1283;22578;-84
2022/08/30 09:53:53;;;;;;;14.40;6.90;;;;;;;20.59;68.13;98362.84;104690;1282;1607806;-83
2022/08/30 09:56:49;;;;;;;14.20;6.20;;;;;;;20.29;67.88;98361.67;106033;1282;22758;-83
2022/08/30 09:59:47;;;;;;;9.10;5.80;;;;;;;20.23;68.16;98368.08;106132;1282;25377;-83
2022/08/30 10:02:34;;;;;;;7.30;5.20;;;;;;;20.40;67.60;98364.55;105796;1282;22720;-84
2022/08/30 10:05:08;;;;;;;7.10;4.80;;;;;;;20.63;66.93;98359.67;105465;1282;25360;-82
2022/08/30 10:08:18;;;;;;;9.60;5.60;;;;;;;20.89;66.59;98361.06;105894;1282;22703;-82
2022/08/30 10:10:54;;;;;;;9.40;5.20;;;;;;;21.15;66.16;98355.86;105466;1283;24296;-84
2022/08/30 10:13:31;;;;;;;7.80;4.80;;;;;;;21.37;64.73;98356.59;105982;1282;22700;-81
2022/08/30 10:16:15;;;;;;;9.20;4.70;;;;;;;21.51;63.96;98349.45;105877;1282;24223;-82
2022/08/30 10:19:00;;;;;;;7.10;4.60;;;;;;;21.70;63.86;98347.81;105710;1282;22624;-84
2022/08/30 10:21:38;;;;;;;10.40;4.40;;;;;;;21.87;62.90;98348.52;105648;1282;22546;-83
2022/08/30 10:24:11;;;;;;;6.90;4.90;;;;;;;21.74;62.65;98348.52;105468;1284;23404;-84
2022/08/30 10:27:21;;;;;;;8.00;5.50;;;;;;;21.42;62.13;98351.77;105896;1282;22569;-84
2022/08/30 10:29:58;;;;;;;6.80;4.50;;;;;;;21.12;63.90;98347.82;105292;1282;24436;-85
2022/08/30 10:33:03;;;;;;;8.90;5.60;;;;;;;21.37;64.03;98341.41;105490;1283;22546;-85
2022/08/30 10:35:43;;;;;;;8.00;5.00;;;;;;;21.64;63.48;98343.45;105912;1282;25356;-85
2022/08/30 10:38:30;;;;;;;9.60;5.20;;;;;;;21.92;64.60;98329.96;105593;1282;24542;-83
2022/08/30 10:41:28;;;;;;;7.50;5.30;;;;;;;22.06;62.72;98334.86;105863;1282;22873;-84
2022/08/30 10:44:16;;;;;;;4.00;2.70;;;;;;;22.06;60.17;98338.23;105503;1281;24266;-84
2022/08/30 10:47:22;;;;;;;4.50;3.20;;;;;;;22.02;58.11;98341.05;105458;1282;23219;-84
2022/08/30 10:50:00;;;;;;;5.10;3.80;;;;;;;22.08;57.41;98336.55;105545;1282;25227;-83
2022/08/30 10:52:40;;;;;;;5.90;4.10;;;;;;;22.10;58.46;98334.08;105547;1282;25235;-82
2022/08/30 10:55:14;;;;;;;6.90;4.50;;;;;;;22.24;58.83;98335.37;105680;1282;22697;-83
2022/08/30 10:57:43;;;;;;;;;;;;;;;22.33;57.97;98333.33;105547;1283;25615;-84
2022/08/30 11:00:21;;;;;;;7.20;4.20;;;;;;;22.45;58.56;98337.15;105814;1282;22656;-84
2022/08/30 11:03:14;;;;;;;5.30;3.70;;;;;;;22.41;56.79;98331.27;105494;1282;22539;-84
2022/08/30 11:06:00;;;;;;;8.30;4.90;;;;;;;22.02;57.51;98332.36;105617;1282;22702;-82
2022/08/30 11:08:46;;;;;;;;;;;;;;;21.71;58.06;98328.88;105651;1282;25330;-82
2022/08/30 11:11:34;;;;;;;6.60;4.10;;;;;;;21.49;58.98;98326.55;105668;1282;24089;-84
2022/08/30 11:14:05;;;;;;;7.20;4.20;;;;;;;21.66;59.20;98327.13;105398;1282;22634;-81
2022/08/30 11:16:46;;;;;;;6.90;4.20;;;;;;;21.88;58.40;98323.40;105827;1282;24438;-82
2022/08/30 11:19:36;;;;;;;6.90;4.60;;;;;;;22.11;57.61;98318.98;105762;1282;23336;-84
2022/08/30 11:22:14;;;;;;;9.50;5.80;;;;;;;22.34;58.52;98320.56;105872;1282;22560;-85
2022/08/30 11:25:13;;;;;;;9.50;4.30;;;;;;;22.58;58.29;98320.17;105719;1282;23217;-83
2022/08/30 11:27:45;;;;;;;8.10;4.20;;;;;;;22.77;57.18;98325.48;105575;1282;22554;-82
2022/08/30 11:30:24;;;;;;;5.00;3.30;;;;;;;22.61;56.93;98317.31;105819;1283;22976;-83
2022/08/30 11:33:24;;;;;;;4.80;3.60;;;;;;;22.62;56.14;98321.82;105497;1282;26524;-84
2022/08/30 11:35:52;;;;;;;4.60;3.20;;;;;;;22.63;55.50;98317.81;105604;1284;22664;-83
2022/08/30 11:38:27;;;;;;;4.90;3.50;;;;;;;22.76;55.28;98314.89;105541;1282;25532;-82
2022/08/30 11:40:57;;;;;;;5.10;3.60;;;;;;;22.91;55.84;98318.31;105673;1282;25426;-81
2022/08/30 11:43:35;;;;;;;4.10;2.70;;;;;;;23.18;54.63;98317.23;105673;1282;25362;-81
2022/08/30 11:46:25;;;;;;;4.00;2.90;;;;;;;23.43;53.25;98312.84;105438;1282;22547;-81